createdAt,value
2022-11-29T00:01:42.234Z,3.42
2022-11-29T00:04:08.743Z,3.41
2022-11-29T00:06:35.528Z,3.41
2022-11-29T00:09:03.585Z,3.41
2022-11-29T00:11:51.257Z,3.40
2022-11-29T00:14:18.583Z,3.42
2022-11-29T00:16:45.097Z,3.41
2022-11-29T00:19:12.284Z,3.41
2022-11-29T00:21:39.022Z,3.42
2022-11-29T00:24:05.778Z,3.42
2022-11-29T00:26:32.163Z,3.40
2022-11-29T00:28:58.853Z,3.39
2022-11-29T00:31:27.949Z,3.41
2022-11-29T00:33:54.464Z,3.37
2022-11-29T00:36:20.848Z,3.37
2022-11-29T00:38:47.322Z,3.36
2022-11-29T00:41:13.780Z,3.38
2022-11-29T00:43:40.291Z,3.32
2022-11-29T00:46:07.215Z,3.32
2022-11-29T00:48:33.999Z,3.33
2022-11-29T00:51:00.893Z,3.31
2022-11-29T00:53:27.620Z,3.31
2022-11-29T00:55:54.396Z,3.31
2022-11-29T00:58:21.159Z,3.29
2022-11-29T01:00:48.096Z,3.28
2022-11-29T01:03:15.346Z,3.27
2022-11-29T01:05:42.910Z,3.28
2022-11-29T01:08:09.599Z,3.29
2022-11-29T01:10:35.971Z,3.29
2022-11-29T01:13:03.031Z,3.28
2022-11-29T01:15:29.493Z,3.30
2022-11-29T01:17:55.940Z,3.32
2022-11-29T01:20:22.343Z,3.31
2022-11-29T01:22:48.747Z,3.30
2022-11-29T01:25:15.480Z,3.30
2022-11-29T01:27:42.086Z,3.31
2022-11-29T01:30:09.093Z,3.32
2022-11-29T01:32:37.693Z,3.29
2022-11-29T01:35:04.956Z,3.30
2022-11-29T01:37:31.782Z,3.29
2022-11-29T01:39:58.238Z,3.24
2022-11-29T01:42:24.695Z,3.26
2022-11-29T01:45:05.588Z,3.25
2022-11-29T01:47:32.309Z,3.24
2022-11-29T01:49:59.693Z,3.23
2022-11-29T01:52:28.387Z,3.22
2022-11-29T01:54:56.652Z,3.24
2022-11-29T01:57:23.505Z,3.25
2022-11-29T01:59:51.754Z,3.25
2022-11-29T02:02:40.649Z,3.27
2022-11-29T02:05:07.945Z,3.27
2022-11-29T02:07:34.614Z,3.28
2022-11-29T02:10:02.340Z,3.29
2022-11-29T02:12:37.748Z,3.29
2022-11-29T02:15:23.415Z,3.27
2022-11-29T02:18:11.610Z,3.30
2022-11-29T02:21:00.127Z,3.27
2022-11-29T02:23:30.160Z,3.28
2022-11-29T02:25:59.654Z,3.27
2022-11-29T02:28:44.960Z,3.28
2022-11-29T02:31:23.551Z,3.29
2022-11-29T02:34:02.498Z,3.31
2022-11-29T02:36:47.921Z,3.33
2022-11-29T02:39:23.501Z,3.29
2022-11-29T02:42:02.644Z,3.29
2022-11-29T02:44:41.798Z,3.27
2022-11-29T02:47:08.815Z,3.29
2022-11-29T02:49:38.434Z,3.30
2022-11-29T02:52:04.929Z,3.26
2022-11-29T02:54:37.595Z,3.29
2022-11-29T02:57:16.094Z,3.30
2022-11-29T02:59:55.203Z,3.26
2022-11-29T03:02:34.024Z,3.29
2022-11-29T03:05:16.681Z,3.27
2022-11-29T03:07:48.772Z,3.30
2022-11-29T03:10:35.611Z,3.31
2022-11-29T03:13:03.880Z,3.32
2022-11-29T03:15:44.797Z,3.31
2022-11-29T03:18:32.820Z,3.33
2022-11-29T03:21:08.414Z,3.33
2022-11-29T03:23:42.578Z,3.31
2022-11-29T03:26:19.043Z,3.34
2022-11-29T03:28:54.620Z,3.35
2022-11-29T03:31:28.696Z,3.34
2022-11-29T03:34:01.012Z,3.35
2022-11-29T03:36:40.830Z,3.37
2022-11-29T03:39:11.060Z,3.34
2022-11-29T03:41:45.423Z,3.34
2022-11-29T03:44:20.033Z,3.36
2022-11-29T03:46:55.302Z,3.35
2022-11-29T03:49:38.003Z,3.39
2022-11-29T03:52:13.823Z,3.40
2022-11-29T03:54:55.696Z,3.41
2022-11-29T03:57:25.664Z,3.42
2022-11-29T03:59:58.911Z,3.40
2022-11-29T04:02:40.602Z,3.41
2022-11-29T04:05:19.287Z,3.44
2022-11-29T04:07:45.782Z,3.45
2022-11-29T04:10:21.494Z,3.43
2022-11-29T04:13:03.783Z,3.44
2022-11-29T04:15:30.154Z,3.43
2022-11-29T04:18:15.206Z,3.42
2022-11-29T04:20:48.205Z,3.45
2022-11-29T04:23:33.350Z,3.43
2022-11-29T04:26:18.643Z,3.45
2022-11-29T04:29:08.269Z,3.44
2022-11-29T04:31:57.726Z,3.46
2022-11-29T04:34:34.645Z,3.47
2022-11-29T04:37:19.902Z,3.47
2022-11-29T04:40:03.202Z,3.45
2022-11-29T04:42:48.385Z,3.47
2022-11-29T04:45:20.984Z,3.47
2022-11-29T04:48:10.407Z,3.46
2022-11-29T04:50:48.730Z,3.45
2022-11-29T04:53:28.742Z,3.46
2022-11-29T04:56:14.182Z,3.49
2022-11-29T04:59:05.103Z,3.48
2022-11-29T05:01:34.523Z,3.49
2022-11-29T05:04:14.455Z,3.47
2022-11-29T05:06:47.995Z,3.49
2022-11-29T05:09:23.350Z,3.50
2022-11-29T05:11:49.765Z,3.52
2022-11-29T05:14:25.050Z,3.53
2022-11-29T05:16:51.431Z,3.53
2022-11-29T05:19:36.799Z,3.54
2022-11-29T05:22:03.187Z,3.55
2022-11-29T05:24:45.219Z,3.54
2022-11-29T05:27:20.966Z,3.55
2022-11-29T05:29:56.626Z,3.55
2022-11-29T05:32:42.035Z,3.53
2022-11-29T05:35:28.479Z,3.51
2022-11-29T05:37:59.051Z,3.56
2022-11-29T05:40:34.323Z,3.56
2022-11-29T05:43:19.831Z,3.57
2022-11-29T05:45:52.823Z,3.57
2022-11-29T05:48:45.212Z,3.58
2022-11-29T05:51:30.497Z,3.55
2022-11-29T05:54:00.124Z,3.55
2022-11-29T05:56:26.853Z,3.58
2022-11-29T05:58:59.801Z,3.57
2022-11-29T06:01:29.262Z,3.59
2022-11-29T06:04:02.485Z,3.59
2022-11-29T06:06:50.448Z,3.57
2022-11-29T06:09:40.547Z,3.58
2022-11-29T06:12:16.994Z,3.55
2022-11-29T06:14:57.134Z,3.55
2022-11-29T06:17:38.622Z,3.52
2022-11-29T06:20:13.062Z,3.55
2022-11-29T06:22:39.456Z,3.57
2022-11-29T06:25:24.815Z,3.57
2022-11-29T06:28:15.441Z,3.58
2022-11-29T06:30:41.886Z,3.55
2022-11-29T06:33:22.060Z,3.55
2022-11-29T06:35:53.205Z,3.54
2022-11-29T06:38:24.546Z,3.54
2022-11-29T06:40:51.487Z,3.53
2022-11-29T06:43:18.009Z,3.50
2022-11-29T06:46:04.715Z,3.52
2022-11-29T06:48:38.371Z,3.53
2022-11-29T06:51:13.669Z,3.53
2022-11-29T06:53:47.403Z,3.54
2022-11-29T06:56:16.695Z,3.50
2022-11-29T06:58:52.378Z,3.56
2022-11-29T07:01:39.909Z,3.55
2022-11-29T07:04:06.337Z,3.57
2022-11-29T07:06:34.231Z,3.58
2022-11-29T07:09:01.732Z,3.61
2022-11-29T07:11:28.409Z,3.62
2022-11-29T07:13:54.950Z,3.67
2022-11-29T07:16:27.165Z,3.67
2022-11-29T07:19:11.686Z,3.66
2022-11-29T07:22:01.436Z,3.67
2022-11-29T07:24:37.107Z,3.65
2022-11-29T07:27:06.512Z,3.72
2022-11-29T07:29:51.957Z,3.76
2022-11-29T07:32:37.254Z,3.75
2022-11-29T07:35:08.208Z,3.79
2022-11-29T07:37:46.775Z,3.81
2022-11-29T07:40:20.693Z,3.83
2022-11-29T07:43:05.574Z,3.85
2022-11-29T07:45:34.501Z,3.85
2022-11-29T07:48:00.911Z,3.85
2022-11-29T07:50:28.388Z,3.88
2022-11-29T07:52:55.734Z,3.90
2022-11-29T07:55:23.338Z,3.91
2022-11-29T07:57:50.351Z,3.89
2022-11-29T08:00:17.413Z,3.91
2022-11-29T08:02:43.927Z,3.94
2022-11-29T08:05:10.525Z,3.89
2022-11-29T08:07:38.050Z,3.95
2022-11-29T08:10:06.345Z,3.92
2022-11-29T08:12:32.957Z,3.97
2022-11-29T08:14:59.734Z,4.02
2022-11-29T08:17:26.245Z,4.04
2022-11-29T08:19:52.809Z,4.03
2022-11-29T08:22:19.416Z,4.09
2022-11-29T08:24:46.005Z,4.10
2022-11-29T08:27:12.703Z,4.13
2022-11-29T08:29:42.201Z,4.15
2022-11-29T08:32:09.104Z,4.17
2022-11-29T08:34:35.640Z,4.13
2022-11-29T08:37:02.111Z,4.19
2022-11-29T08:39:28.779Z,4.22
2022-11-29T08:41:55.250Z,4.20
2022-11-29T08:44:23.071Z,4.24
2022-11-29T08:47:08.231Z,4.27
2022-11-29T08:49:34.647Z,4.26
2022-11-29T08:52:19.718Z,4.31
2022-11-29T08:54:46.274Z,4.34
2022-11-29T08:59:59.216Z,4.35
2022-11-29T09:02:25.706Z,4.34
2022-11-29T09:04:52.155Z,4.39
2022-11-29T09:07:20.494Z,4.38
2022-11-29T09:09:46.913Z,4.40
2022-11-29T09:12:13.311Z,4.43
2022-11-29T09:14:39.687Z,4.48
2022-11-29T09:17:08.383Z,4.53
2022-11-29T09:19:34.836Z,4.57
2022-11-29T09:22:01.327Z,4.59
2022-11-29T09:24:28.007Z,4.60
2022-11-29T09:26:54.478Z,4.70
2022-11-29T09:29:20.898Z,4.70
2022-11-29T09:31:47.489Z,4.76
2022-11-29T09:34:14.756Z,4.82
2022-11-29T09:36:42.981Z,4.85
2022-11-29T09:39:09.918Z,4.92
2022-11-29T09:41:42.982Z,4.98
2022-11-29T09:44:18.225Z,4.99
2022-11-29T09:46:48.081Z,5.00
2022-11-29T09:49:26.601Z,5.02
2022-11-29T09:52:04.040Z,5.01
2022-11-29T09:54:49.739Z,5.04
2022-11-29T09:57:17.542Z,5.09
2022-11-29T09:59:47.221Z,5.10
2022-11-29T10:02:24.719Z,5.11
2022-11-29T10:04:57.003Z,5.11
2022-11-29T10:07:32.771Z,5.17
2022-11-29T10:10:03.084Z,5.20
2022-11-29T10:12:37.016Z,5.14
2022-11-29T10:15:11.125Z,5.22
2022-11-29T10:17:43.580Z,5.26
2022-11-29T10:20:12.995Z,5.28
2022-11-29T10:22:39.464Z,5.28
2022-11-29T10:25:06.782Z,5.29
2022-11-29T10:27:34.391Z,5.33
2022-11-29T10:30:02.802Z,5.34
2022-11-29T10:32:32.032Z,5.32
2022-11-29T10:35:00.845Z,5.40
2022-11-29T10:37:32.534Z,5.45
2022-11-29T10:40:08.095Z,5.42
2022-11-29T10:42:49.963Z,5.47
2022-11-29T10:45:19.423Z,5.53
2022-11-29T10:47:47.010Z,5.50
2022-11-29T10:50:17.270Z,5.55
2022-11-29T10:52:43.777Z,5.50
2022-11-29T10:55:13.556Z,5.51
2022-11-29T10:57:59.997Z,5.49
2022-11-29T11:00:26.795Z,5.51
2022-11-29T11:02:53.195Z,5.57
2022-11-29T11:05:26.339Z,5.54
2022-11-29T11:07:57.200Z,5.50
2022-11-29T11:10:27.099Z,5.62
2022-11-29T11:13:04.603Z,5.62
2022-11-29T11:15:34.316Z,5.65
2022-11-29T11:18:04.668Z,5.66
2022-11-29T11:20:35.766Z,5.65
2022-11-29T11:23:03.806Z,5.67
2022-11-29T11:25:33.465Z,5.74
2022-11-29T11:28:12.075Z,5.73
2022-11-29T11:30:38.665Z,5.72
2022-11-29T11:33:08.199Z,5.78
2022-11-29T11:35:34.897Z,5.75
2022-11-29T11:38:01.329Z,5.78
2022-11-29T11:40:29.662Z,5.83
2022-11-29T11:43:02.195Z,5.82
2022-11-29T11:45:36.423Z,5.92
2022-11-29T11:48:04.968Z,5.89
2022-11-29T11:50:54.559Z,5.83
2022-11-29T11:53:21.009Z,5.86
2022-11-29T11:55:56.488Z,5.88
2022-11-29T11:58:24.043Z,5.97
2022-11-29T12:01:10.383Z,5.97
2022-11-29T12:03:45.820Z,6.02
2022-11-29T12:06:32.488Z,6.04
2022-11-29T12:09:08.318Z,6.03
2022-11-29T12:12:00.425Z,6.10
2022-11-29T12:14:39.257Z,6.10
2022-11-29T12:17:16.830Z,6.13
2022-11-29T12:19:58.869Z,6.16
2022-11-29T12:22:30.706Z,6.14
2022-11-29T12:24:59.895Z,6.16
2022-11-29T12:27:26.407Z,6.17
2022-11-29T12:29:52.883Z,6.13
2022-11-29T12:32:19.246Z,6.13
2022-11-29T12:35:19.186Z,6.07
2022-11-29T12:37:59.734Z,6.07
2022-11-29T12:40:53.820Z,6.09
2022-11-29T12:43:39.047Z,6.10
2022-11-29T12:46:05.514Z,6.07
2022-11-29T12:48:53.008Z,6.12
2022-11-29T12:51:19.467Z,6.07
2022-11-29T12:53:58.114Z,6.13
2022-11-29T12:56:24.581Z,6.08
2022-11-29T12:59:10.031Z,6.09
2022-11-29T13:01:45.682Z,6.11
2022-11-29T13:04:21.045Z,6.06
2022-11-29T13:06:53.742Z,6.13
2022-11-29T13:09:40.226Z,6.16
2022-11-29T13:12:13.153Z,6.14
2022-11-29T13:14:45.415Z,6.12
2022-11-29T13:17:24.864Z,6.12
2022-11-29T13:19:55.384Z,6.14
2022-11-29T13:22:44.936Z,6.11
2022-11-29T13:25:21.204Z,6.13
2022-11-29T13:27:56.807Z,6.14
2022-11-29T13:30:23.310Z,6.12
2022-11-29T13:32:55.848Z,6.12
2022-11-29T13:35:22.343Z,6.10
2022-11-29T13:37:55.347Z,6.07
2022-11-29T13:40:39.968Z,6.07
2022-11-29T13:43:10.683Z,6.06
2022-11-29T13:45:42.087Z,6.07
2022-11-29T13:48:41.052Z,6.01
2022-11-29T13:51:26.477Z,6.05
2022-11-29T13:53:54.091Z,6.08
2022-11-29T13:56:36.091Z,6.09
2022-11-29T13:59:07.005Z,6.06
2022-11-29T14:01:54.024Z,6.05
2022-11-29T14:04:26.758Z,6.05
2022-11-29T14:07:13.576Z,6.01
2022-11-29T14:10:01.133Z,6.04
2022-11-29T14:12:38.158Z,6.05
2022-11-29T14:15:14.868Z,6.01
2022-11-29T14:17:47.483Z,6.01
2022-11-29T14:20:23.089Z,4.56
2022-11-29T14:23:04.839Z,5.95
2022-11-29T14:25:51.225Z,5.95
2022-11-29T14:28:21.459Z,5.94
2022-11-29T14:30:52.229Z,5.93
2022-11-29T14:33:34.079Z,5.93
2022-11-29T14:36:00.574Z,5.92
2022-11-29T14:38:37.900Z,5.91
2022-11-29T14:41:19.198Z,5.87
2022-11-29T14:43:45.771Z,5.89
2022-11-29T14:46:15.295Z,5.88
2022-11-29T14:49:02.558Z,5.86
2022-11-29T14:51:30.743Z,5.86
2022-11-29T14:54:13.387Z,5.84
2022-11-29T14:56:44.451Z,5.78
2022-11-29T14:59:29.405Z,5.80
2022-11-29T15:01:55.983Z,5.77
2022-11-29T15:04:25.640Z,5.79
2022-11-29T15:06:55.586Z,5.77
2022-11-29T15:09:22.813Z,5.76
2022-11-29T15:12:10.108Z,5.72
2022-11-29T15:14:36.634Z,5.70
2022-11-29T15:17:21.924Z,5.70
2022-11-29T15:20:08.820Z,5.68
2022-11-29T15:22:47.958Z,5.67
2022-11-29T15:25:16.648Z,5.64
2022-11-29T15:27:49.708Z,5.63
2022-11-29T15:30:35.241Z,5.61
2022-11-29T15:33:06.400Z,5.61
2022-11-29T15:35:34.346Z,5.60
2022-11-29T15:38:01.178Z,5.59
2022-11-29T15:40:35.168Z,5.58
2022-11-29T15:43:17.814Z,5.57
2022-11-29T15:45:51.631Z,5.55
2022-11-29T15:48:21.219Z,5.55
2022-11-29T15:51:06.800Z,5.53
2022-11-29T15:53:36.309Z,5.54
2022-11-29T15:56:05.640Z,5.52
2022-11-29T15:58:33.594Z,5.51
2022-11-29T16:01:00.662Z,5.52
2022-11-29T16:03:32.636Z,5.51
2022-11-29T16:06:05.638Z,5.51
2022-11-29T16:08:40.454Z,5.47
2022-11-29T16:11:07.306Z,5.48
2022-11-29T16:13:41.148Z,5.47
2022-11-29T16:16:13.228Z,5.49
2022-11-29T16:18:40.986Z,5.48
2022-11-29T16:21:10.854Z,5.49
2022-11-29T16:23:41.283Z,5.49
2022-11-29T16:26:13.718Z,5.51
2022-11-29T16:28:44.856Z,5.51
2022-11-29T16:31:18.682Z,5.51
2022-11-29T16:33:47.487Z,5.51
2022-11-29T16:36:16.525Z,5.51
2022-11-29T16:38:51.745Z,5.51
2022-11-29T16:41:24.564Z,5.52
2022-11-29T16:43:55.429Z,5.53
2022-11-29T16:46:21.928Z,5.55
2022-11-29T16:48:54.883Z,5.55
2022-11-29T16:51:24.296Z,5.49
2022-11-29T16:53:51.834Z,5.49
2022-11-29T16:56:23.381Z,5.43
2022-11-29T16:59:17.129Z,5.39
2022-11-29T17:01:41.319Z,5.38
2022-11-29T17:04:08.743Z,5.41
2022-11-29T17:06:35.271Z,5.43
2022-11-29T17:09:01.727Z,5.46
2022-11-29T17:11:28.188Z,5.49
2022-11-29T17:13:54.685Z,5.51
2022-11-29T17:16:22.526Z,5.53
2022-11-29T17:18:49.043Z,5.56
2022-11-29T17:21:22.877Z,5.56
2022-11-29T17:23:49.567Z,5.54
2022-11-29T17:26:16.418Z,5.55
2022-11-29T17:28:44.353Z,5.54
2022-11-29T17:31:11.914Z,5.47
2022-11-29T17:33:38.379Z,5.41
2022-11-29T17:36:08.579Z,5.37
2022-11-29T17:38:35.538Z,5.39
2022-11-29T17:41:12.265Z,5.37
2022-11-29T17:43:42.132Z,5.28
2022-11-29T17:46:12.896Z,5.30
2022-11-29T17:48:39.413Z,5.30
2022-11-29T17:51:17.238Z,5.30
2022-11-29T17:53:54.923Z,5.32
2022-11-29T17:56:22.966Z,5.26
2022-11-29T17:58:56.799Z,5.27
2022-11-29T18:01:24.502Z,5.26
2022-11-29T18:03:53.373Z,5.29
2022-11-29T18:06:21.237Z,5.34
2022-11-29T18:08:49.295Z,5.38
2022-11-29T18:11:15.855Z,5.41
2022-11-29T18:13:42.318Z,5.40
2022-11-29T18:16:10.398Z,5.35
2022-11-29T18:18:37.416Z,5.27
2022-11-29T18:21:05.683Z,5.31
2022-11-29T18:23:32.919Z,5.28
2022-11-29T18:26:00.355Z,5.22
2022-11-29T18:28:28.500Z,5.17
2022-11-29T18:30:56.358Z,5.18
2022-11-29T18:33:23.748Z,5.19
2022-11-29T18:35:50.169Z,5.09
2022-11-29T18:38:16.984Z,5.09
2022-11-29T18:40:45.640Z,5.00
2022-11-29T18:43:12.812Z,5.06
2022-11-29T18:45:39.483Z,5.13
2022-11-29T18:48:05.986Z,5.14
2022-11-29T18:50:32.948Z,5.11
2022-11-29T18:52:59.537Z,5.10
2022-11-29T18:55:26.888Z,5.10
2022-11-29T18:57:53.947Z,5.14
2022-11-29T19:00:20.524Z,5.11
2022-11-29T19:02:47.078Z,5.15
2022-11-29T19:05:13.552Z,5.16
2022-11-29T19:07:40.033Z,5.08
2022-11-29T19:10:07.095Z,5.06
2022-11-29T19:12:33.505Z,4.94
2022-11-29T19:15:00.125Z,5.00
2022-11-29T19:17:27.491Z,4.80
2022-11-29T19:19:54.279Z,4.83
2022-11-29T19:22:20.694Z,4.83
2022-11-29T19:24:47.260Z,4.78
2022-11-29T19:27:13.814Z,4.79
2022-11-29T19:29:40.215Z,4.79
2022-11-29T19:32:08.437Z,4.79
2022-11-29T19:34:34.869Z,4.78
2022-11-29T19:37:01.449Z,4.79
2022-11-29T19:39:29.320Z,4.76
2022-11-29T19:41:55.714Z,4.76
2022-11-29T19:44:26.577Z,4.77
2022-11-29T19:46:56.277Z,4.75
2022-11-29T19:49:22.711Z,4.74
2022-11-29T19:51:49.103Z,4.70
2022-11-29T19:54:15.543Z,4.64
2022-11-29T19:56:42.140Z,4.54
2022-11-29T19:59:08.786Z,4.58
2022-11-29T20:01:43.806Z,4.56
2022-11-29T20:04:11.588Z,4.50
2022-11-29T20:06:38.133Z,4.46
2022-11-29T20:09:04.638Z,4.40
2022-11-29T20:11:31.021Z,4.34
2022-11-29T20:13:58.680Z,4.25
2022-11-29T20:16:25.850Z,4.37
2022-11-29T20:18:53.083Z,4.42
2022-11-29T20:21:19.496Z,4.44
2022-11-29T20:23:48.637Z,4.49
2022-11-29T20:26:17.147Z,4.52
2022-11-29T20:28:43.963Z,4.52
2022-11-29T20:31:13.001Z,4.51
2022-11-29T20:33:40.303Z,4.56
2022-11-29T20:36:06.757Z,4.56
2022-11-29T20:38:42.462Z,4.54
2022-11-29T20:41:14.728Z,4.53
2022-11-29T20:43:47.632Z,4.53
2022-11-29T20:46:14.217Z,4.53
2022-11-29T20:48:40.750Z,4.53
2022-11-29T20:51:07.446Z,4.52
2022-11-29T20:53:35.112Z,4.53
2022-11-29T20:56:02.954Z,4.50
2022-11-29T20:58:29.482Z,4.49
2022-11-29T21:00:56.040Z,4.49
2022-11-29T21:03:23.515Z,4.49
2022-11-29T21:05:50.458Z,4.47
2022-11-29T21:08:17.747Z,4.46
2022-11-29T21:10:45.396Z,4.50
2022-11-29T21:13:12.600Z,4.51
2022-11-29T21:15:39.484Z,4.51
2022-11-29T21:18:06.299Z,4.51
2022-11-29T21:20:33.068Z,4.45
2022-11-29T21:23:02.510Z,4.42
2022-11-29T21:25:47.389Z,4.44
2022-11-29T21:28:15.309Z,4.44
2022-11-29T21:30:42.309Z,4.46
2022-11-29T21:33:09.563Z,4.45
2022-11-29T21:35:39.889Z,4.46
2022-11-29T21:38:09.882Z,4.47
2022-11-29T21:40:36.294Z,4.48
2022-11-29T21:43:02.987Z,4.50
2022-11-29T21:45:29.417Z,4.50
2022-11-29T21:47:59.227Z,4.50
2022-11-29T21:50:25.648Z,4.48
2022-11-29T21:52:52.494Z,4.50
2022-11-29T21:55:18.915Z,4.50
2022-11-29T21:57:45.620Z,4.46
2022-11-29T22:00:12.271Z,4.46
2022-11-29T22:02:38.804Z,4.44
2022-11-29T22:05:07.320Z,4.45
2022-11-29T22:07:33.834Z,4.45
2022-11-29T22:10:10.005Z,4.44
2022-11-29T22:12:40.888Z,4.44
2022-11-29T22:15:13.921Z,4.43
2022-11-29T22:17:40.402Z,4.42
2022-11-29T22:20:07.164Z,4.45
2022-11-29T22:22:33.577Z,4.44
2022-11-29T22:25:00.009Z,4.38
2022-11-29T22:27:26.402Z,4.28
2022-11-29T22:29:52.881Z,4.34
2022-11-29T22:32:19.311Z,4.35
2022-11-29T22:34:45.995Z,4.29
2022-11-29T22:37:12.647Z,4.21
2022-11-29T22:39:39.054Z,4.21
2022-11-29T22:42:06.800Z,4.20
2022-11-29T22:44:33.214Z,4.25
2022-11-29T22:46:59.700Z,4.25
2022-11-29T22:49:26.138Z,4.24
2022-11-29T22:51:52.602Z,4.27
2022-11-29T22:54:20.207Z,4.28
2022-11-29T22:56:46.852Z,4.29
2022-11-29T22:59:13.602Z,4.28
2022-11-29T23:01:40.902Z,4.28
2022-11-29T23:04:08.986Z,4.30
2022-11-29T23:06:38.688Z,4.33
2022-11-29T23:09:06.700Z,4.31
2022-11-29T23:11:33.150Z,4.33
2022-11-29T23:13:59.972Z,4.33
2022-11-29T23:16:27.705Z,4.26
2022-11-29T23:18:55.122Z,4.26
2022-11-29T23:21:23.392Z,4.24
2022-11-29T23:23:55.841Z,4.27
2022-11-29T23:26:26.932Z,4.29
2022-11-29T23:28:53.844Z,4.30
2022-11-29T23:31:20.811Z,4.33
2022-11-29T23:33:47.572Z,4.29
2022-11-29T23:36:14.468Z,4.25
2022-11-29T23:38:40.980Z,4.26
2022-11-29T23:41:07.631Z,4.22
2022-11-29T23:43:35.393Z,4.27
2022-11-29T23:46:05.838Z,4.24
2022-11-29T23:48:32.286Z,4.25
2022-11-29T23:50:58.737Z,4.22
2022-11-29T23:53:25.337Z,4.24
2022-11-29T23:56:08.621Z,4.25
2022-11-29T23:58:35.148Z,4.28
